Allen, South Dakota
Current Conditions -  °F | °C
As of 2:52 PM on Sunday 21 Dec 2014 (Local Time) from KIEN Reporting Station
Clear Clear  
Wind Chill: 42°   Ceiling: Unl
Heat Index: 48°   Visibility: 10mi
Dew Point: 29°   Wind: 17mph
Humidity: 48%   Direction: 300°WNW
Pressure: 29.39"   Gusts: NA
Location:  43.28°N, 101.93°W
Report Text: KIEN 212152Z AUTO 30015KT 10SM CLR 09/M02 A2939 RMK AO2 WSHFT 2056 SLP962 T00891017
Loading
Personal Weather Stations






























Interactive Weather Map New forecast layout! Learn more

10-Day Weather Forecast

Advertisements
Track Severe Weather on mobile